sensor_id;sensor_type;location;lat;lon;timestamp;temperature;humidity
3017;DHT22;1518;52.408;13.060;2022-11-25T00:00:27;14.20;93.50
3017;DHT22;1518;52.408;13.060;2022-11-25T00:03:15;14.30;93.50
3017;DHT22;1518;52.408;13.060;2022-11-25T00:06:07;14.30;93.70
3017;DHT22;1518;52.408;13.060;2022-11-25T00:08:59;14.30;93.50
3017;DHT22;1518;52.408;13.060;2022-11-25T00:11:47;14.30;93.60
3017;DHT22;1518;52.408;13.060;2022-11-25T00:14:35;14.30;93.50
3017;DHT22;1518;52.408;13.060;2022-11-25T00:17:23;14.40;93.30
3017;DHT22;1518;52.408;13.060;2022-11-25T00:20:12;14.40;93.10
3017;DHT22;1518;52.408;13.060;2022-11-25T00:23:00;14.40;93.00
3017;DHT22;1518;52.408;13.060;2022-11-25T00:25:49;14.40;92.90
3017;DHT22;1518;52.408;13.060;2022-11-25T00:28:38;14.30;92.80
3017;DHT22;1518;52.408;13.060;2022-11-25T00:31:28;14.30;92.70
3017;DHT22;1518;52.408;13.060;2022-11-25T00:34:16;14.40;93.00
3017;DHT22;1518;52.408;13.060;2022-11-25T00:37:04;14.20;92.70
3017;DHT22;1518;52.408;13.060;2022-11-25T00:39:52;14.30;92.70
3017;DHT22;1518;52.408;13.060;2022-11-25T00:42:42;14.20;92.70
3017;DHT22;1518;52.408;13.060;2022-11-25T00:45:47;14.20;92.70
3017;DHT22;1518;52.408;13.060;2022-11-25T00:48:35;14.10;92.70
3017;DHT22;1518;52.408;13.060;2022-11-25T00:51:23;14.20;92.70
3017;DHT22;1518;52.408;13.060;2022-11-25T00:54:12;14.10;92.70
3017;DHT22;1518;52.408;13.060;2022-11-25T00:57:00;14.10;92.70
3017;DHT22;1518;52.408;13.060;2022-11-25T00:59:49;14.10;92.70
3017;DHT22;1518;52.408;13.060;2022-11-25T01:02:37;14.10;92.70
3017;DHT22;1518;52.408;13.060;2022-11-25T01:05:25;14.00;92.70
3017;DHT22;1518;52.408;13.060;2022-11-25T01:08:13;14.00;92.80
3017;DHT22;1518;52.408;13.060;2022-11-25T01:11:04;14.00;93.00
3017;DHT22;1518;52.408;13.060;2022-11-25T01:13:54;14.00;93.40
3017;DHT22;1518;52.408;13.060;2022-11-25T01:16:48;14.10;93.50
3017;DHT22;1518;52.408;13.060;2022-11-25T01:19:37;14.20;93.50
3017;DHT22;1518;52.408;13.060;2022-11-25T01:22:26;14.30;93.50
3017;DHT22;1518;52.408;13.060;2022-11-25T01:25:14;14.40;93.40
3017;DHT22;1518;52.408;13.060;2022-11-25T01:28:03;14.40;93.40
3017;DHT22;1518;52.408;13.060;2022-11-25T01:30:58;14.50;93.40
3017;DHT22;1518;52.408;13.060;2022-11-25T01:33:52;14.50;93.30
3017;DHT22;1518;52.408;13.060;2022-11-25T01:36:41;14.60;93.30
3017;DHT22;1518;52.408;13.060;2022-11-25T01:39:29;14.60;93.20
3017;DHT22;1518;52.408;13.060;2022-11-25T01:42:19;14.60;93.20
3017;DHT22;1518;52.408;13.060;2022-11-25T01:45:32;14.60;93.00
3017;DHT22;1518;52.408;13.060;2022-11-25T01:48:24;14.60;92.80
3017;DHT22;1518;52.408;13.060;2022-11-25T01:51:20;15.40;93.10
3017;DHT22;1518;52.408;13.060;2022-11-25T01:54:14;14.60;92.70
3017;DHT22;1518;52.408;13.060;2022-11-25T01:57:06;14.50;92.60
3017;DHT22;1518;52.408;13.060;2022-11-25T01:59:57;14.50;92.60
3017;DHT22;1518;52.408;13.060;2022-11-25T02:02:49;14.50;92.60
3017;DHT22;1518;52.408;13.060;2022-11-25T02:05:45;14.40;92.50
3017;DHT22;1518;52.408;13.060;2022-11-25T02:08:37;14.40;92.50
3017;DHT22;1518;52.408;13.060;2022-11-25T02:11:27;14.30;92.60
3017;DHT22;1518;52.408;13.060;2022-11-25T02:14:18;14.40;92.60
3017;DHT22;1518;52.408;13.060;2022-11-25T02:17:08;14.20;92.50
3017;DHT22;1518;52.408;13.060;2022-11-25T02:20:00;14.30;92.50
3017;DHT22;1518;52.408;13.060;2022-11-25T02:22:55;14.20;92.40
3017;DHT22;1518;52.408;13.060;2022-11-25T02:25:45;14.20;92.50
3017;DHT22;1518;52.408;13.060;2022-11-25T02:28:34;14.20;92.50
3017;DHT22;1518;52.408;13.060;2022-11-25T02:31:23;14.20;92.50
3017;DHT22;1518;52.408;13.060;2022-11-25T02:34:11;14.20;92.50
3017;DHT22;1518;52.408;13.060;2022-11-25T02:36:59;14.20;92.50
3017;DHT22;1518;52.408;13.060;2022-11-25T02:39:48;14.10;92.50
3017;DHT22;1518;52.408;13.060;2022-11-25T02:42:38;14.10;92.60
3017;DHT22;1518;52.408;13.060;2022-11-25T02:45:34;14.10;92.70
3017;DHT22;1518;52.408;13.060;2022-11-25T02:48:25;14.10;92.80
3017;DHT22;1518;52.408;13.060;2022-11-25T02:51:34;14.00;92.90
3017;DHT22;1518;52.408;13.060;2022-11-25T02:54:22;14.10;93.10
3017;DHT22;1518;52.408;13.060;2022-11-25T02:57:10;14.00;93.10
3017;DHT22;1518;52.408;13.060;2022-11-25T02:59:59;14.00;93.00
3017;DHT22;1518;52.408;13.060;2022-11-25T03:02:51;14.00;93.00
3017;DHT22;1518;52.408;13.060;2022-11-25T03:05:40;14.00;93.10
3017;DHT22;1518;52.408;13.060;2022-11-25T03:08:28;14.00;93.10
3017;DHT22;1518;52.408;13.060;2022-11-25T03:11:16;14.10;93.20
3017;DHT22;1518;52.408;13.060;2022-11-25T03:14:04;14.10;93.10
3017;DHT22;1518;52.408;13.060;2022-11-25T03:16:54;14.10;93.10
3017;DHT22;1518;52.408;13.060;2022-11-25T03:19:42;14.00;93.00
3017;DHT22;1518;52.408;13.060;2022-11-25T03:22:30;14.00;93.00
3017;DHT22;1518;52.408;13.060;2022-11-25T03:25:18;14.10;93.00
3017;DHT22;1518;52.408;13.060;2022-11-25T03:28:06;12.90;92.40
3017;DHT22;1518;52.408;13.060;2022-11-25T03:30:54;14.00;92.90
3017;DHT22;1518;52.408;13.060;2022-11-25T03:33:44;13.90;93.00
3017;DHT22;1518;52.408;13.060;2022-11-25T03:36:32;14.00;92.90
3017;DHT22;1518;52.408;13.060;2022-11-25T03:39:20;14.00;92.80
3017;DHT22;1518;52.408;13.060;2022-11-25T03:42:09;14.00;92.80
3017;DHT22;1518;52.408;13.060;2022-11-25T03:44:57;14.00;92.80
3017;DHT22;1518;52.408;13.060;2022-11-25T03:47:45;14.00;92.80
3017;DHT22;1518;52.408;13.060;2022-11-25T03:50:35;14.10;92.90
3017;DHT22;1518;52.408;13.060;2022-11-25T03:53:23;14.00;92.90
3017;DHT22;1518;52.408;13.060;2022-11-25T03:56:11;14.00;93.10
3017;DHT22;1518;52.408;13.060;2022-11-25T03:58:59;14.00;93.30
3017;DHT22;1518;52.408;13.060;2022-11-25T04:01:47;14.00;93.50
3017;DHT22;1518;52.408;13.060;2022-11-25T04:04:35;14.20;93.80
3017;DHT22;1518;52.408;13.060;2022-11-25T04:07:25;14.10;93.80
3017;DHT22;1518;52.408;13.060;2022-11-25T04:10:13;14.10;93.70
3017;DHT22;1518;52.408;13.060;2022-11-25T04:13:01;14.10;93.80
3017;DHT22;1518;52.408;13.060;2022-11-25T04:15:49;14.10;93.60
3017;DHT22;1518;52.408;13.060;2022-11-25T04:18:37;14.10;93.50
3017;DHT22;1518;52.408;13.060;2022-11-25T04:21:26;14.10;93.30
3017;DHT22;1518;52.408;13.060;2022-11-25T04:24:15;14.20;93.40
3017;DHT22;1518;52.408;13.060;2022-11-25T04:27:03;14.20;93.20
3017;DHT22;1518;52.408;13.060;2022-11-25T04:29:51;14.10;93.10
3017;DHT22;1518;52.408;13.060;2022-11-25T04:32:39;14.30;93.10
3017;DHT22;1518;52.408;13.060;2022-11-25T04:35:27;14.30;93.10
3017;DHT22;1518;52.408;13.060;2022-11-25T04:38:15;14.10;92.90
3017;DHT22;1518;52.408;13.060;2022-11-25T04:41:05;14.20;93.00
3017;DHT22;1518;52.408;13.060;2022-11-25T04:43:53;14.10;92.90
3017;DHT22;1518;52.408;13.060;2022-11-25T04:46:41;14.10;92.90
3017;DHT22;1518;52.408;13.060;2022-11-25T04:49:30;14.10;92.80
3017;DHT22;1518;52.408;13.060;2022-11-25T04:52:18;14.10;92.80
3017;DHT22;1518;52.408;13.060;2022-11-25T04:55:07;14.10;92.50
3017;DHT22;1518;52.408;13.060;2022-11-25T04:57:56;14.10;92.80
3017;DHT22;1518;52.408;13.060;2022-11-25T05:00:44;14.00;92.70
3017;DHT22;1518;52.408;13.060;2022-11-25T05:03:31;14.10;92.80
3017;DHT22;1518;52.408;13.060;2022-11-25T05:06:19;14.10;92.80
3017;DHT22;1518;52.408;13.060;2022-11-25T05:09:07;14.10;93.00
3017;DHT22;1518;52.408;13.060;2022-11-25T05:11:57;14.10;93.20
3017;DHT22;1518;52.408;13.060;2022-11-25T05:14:46;14.10;93.30
3017;DHT22;1518;52.408;13.060;2022-11-25T05:17:34;14.10;93.50
3017;DHT22;1518;52.408;13.060;2022-11-25T05:20:22;14.10;93.70
3017;DHT22;1518;52.408;13.060;2022-11-25T05:23:10;14.10;93.80
3017;DHT22;1518;52.408;13.060;2022-11-25T05:25:59;14.10;93.70
3017;DHT22;1518;52.408;13.060;2022-11-25T05:28:47;14.20;93.70
3017;DHT22;1518;52.408;13.060;2022-11-25T05:31:36;14.20;93.60
3017;DHT22;1518;52.408;13.060;2022-11-25T05:34:24;14.20;93.60
3017;DHT22;1518;52.408;13.060;2022-11-25T05:37:13;14.20;93.30
3017;DHT22;1518;52.408;13.060;2022-11-25T05:40:09;13.90;93.10
3017;DHT22;1518;52.408;13.060;2022-11-25T05:42:59;14.30;93.20
3017;DHT22;1518;52.408;13.060;2022-11-25T05:45:47;14.30;93.40
3017;DHT22;1518;52.408;13.060;2022-11-25T05:48:36;14.20;93.00
3017;DHT22;1518;52.408;13.060;2022-11-25T05:51:25;14.20;93.00
3017;DHT22;1518;52.408;13.060;2022-11-25T05:54:14;14.20;93.00
3017;DHT22;1518;52.408;13.060;2022-11-25T05:57:02;14.20;93.00
3017;DHT22;1518;52.408;13.060;2022-11-25T05:59:50;14.10;92.90
3017;DHT22;1518;52.408;13.060;2022-11-25T06:02:38;14.10;92.90
3017;DHT22;1518;52.408;13.060;2022-11-25T06:05:27;14.10;92.80
3017;DHT22;1518;52.408;13.060;2022-11-25T06:08:16;14.10;92.80
3017;DHT22;1518;52.408;13.060;2022-11-25T06:11:05;14.10;92.90
3017;DHT22;1518;52.408;13.060;2022-11-25T06:13:55;14.10;92.60
3017;DHT22;1518;52.408;13.060;2022-11-25T06:16:43;14.10;92.90
3017;DHT22;1518;52.408;13.060;2022-11-25T06:19:31;14.10;92.80
3017;DHT22;1518;52.408;13.060;2022-11-25T06:22:20;14.10;92.80
3017;DHT22;1518;52.408;13.060;2022-11-25T06:25:09;14.10;93.00
3017;DHT22;1518;52.408;13.060;2022-11-25T06:27:57;14.10;93.20
3017;DHT22;1518;52.408;13.060;2022-11-25T06:31:06;14.00;93.40
3017;DHT22;1518;52.408;13.060;2022-11-25T06:33:55;14.10;93.70
3017;DHT22;1518;52.408;13.060;2022-11-25T06:36:43;14.20;93.70
3017;DHT22;1518;52.408;13.060;2022-11-25T06:39:32;14.20;93.70
3017;DHT22;1518;52.408;13.060;2022-11-25T06:42:20;14.30;93.70
3017;DHT22;1518;52.408;13.060;2022-11-25T06:45:09;14.30;93.70
3017;DHT22;1518;52.408;13.060;2022-11-25T06:47:57;14.30;93.60
3017;DHT22;1518;52.408;13.060;2022-11-25T06:50:54;14.30;93.60
3017;DHT22;1518;52.408;13.060;2022-11-25T06:53:42;14.30;93.60
3017;DHT22;1518;52.408;13.060;2022-11-25T06:56:32;14.30;93.30
3017;DHT22;1518;52.408;13.060;2022-11-25T06:59:20;14.30;93.20
3017;DHT22;1518;52.408;13.060;2022-11-25T07:02:09;14.50;93.10
3017;DHT22;1518;52.408;13.060;2022-11-25T07:04:58;14.40;93.40
3017;DHT22;1518;52.408;13.060;2022-11-25T07:07:46;14.30;93.00
3017;DHT22;1518;52.408;13.060;2022-11-25T07:10:34;14.30;93.00
3017;DHT22;1518;52.408;13.060;2022-11-25T07:13:24;14.20;92.90
3017;DHT22;1518;52.408;13.060;2022-11-25T07:16:13;14.30;92.80
3017;DHT22;1518;52.408;13.060;2022-11-25T07:19:02;14.20;93.10
3017;DHT22;1518;52.408;13.060;2022-11-25T07:21:50;14.20;92.80
3017;DHT22;1518;52.408;13.060;2022-11-25T07:24:38;14.20;92.70
3017;DHT22;1518;52.408;13.060;2022-11-25T07:27:26;14.20;92.70
3017;DHT22;1518;52.408;13.060;2022-11-25T07:30:16;14.20;92.70
3017;DHT22;1518;52.408;13.060;2022-11-25T07:33:24;14.20;92.70
3017;DHT22;1518;52.408;13.060;2022-11-25T07:36:13;14.10;92.70
3017;DHT22;1518;52.408;13.060;2022-11-25T07:39:03;14.20;92.70
3017;DHT22;1518;52.408;13.060;2022-11-25T07:41:52;14.20;92.80
3017;DHT22;1518;52.408;13.060;2022-11-25T07:44:40;14.20;92.80
3017;DHT22;1518;52.408;13.060;2022-11-25T07:47:32;14.10;92.70
3017;DHT22;1518;52.408;13.060;2022-11-25T07:50:20;14.10;92.80
3017;DHT22;1518;52.408;13.060;2022-11-25T07:53:08;14.10;92.90
3017;DHT22;1518;52.408;13.060;2022-11-25T07:56:00;14.10;93.10
3017;DHT22;1518;52.408;13.060;2022-11-25T07:58:48;14.10;93.60
3017;DHT22;1518;52.408;13.060;2022-11-25T08:01:37;14.10;93.70
3017;DHT22;1518;52.408;13.060;2022-11-25T08:04:26;14.30;93.70
3017;DHT22;1518;52.408;13.060;2022-11-25T08:07:14;14.30;93.60
3017;DHT22;1518;52.408;13.060;2022-11-25T08:10:03;14.40;93.50
3017;DHT22;1518;52.408;13.060;2022-11-25T08:12:51;14.50;93.50
3017;DHT22;1518;52.408;13.060;2022-11-25T08:15:39;14.50;93.40
3017;DHT22;1518;52.408;13.060;2022-11-25T08:18:27;14.60;93.30
3017;DHT22;1518;52.408;13.060;2022-11-25T08:21:17;14.60;93.30
3017;DHT22;1518;52.408;13.060;2022-11-25T08:24:05;14.60;93.20
3017;DHT22;1518;52.408;13.060;2022-11-25T08:26:53;14.70;93.20
3017;DHT22;1518;52.408;13.060;2022-11-25T08:29:44;14.70;93.20
3017;DHT22;1518;52.408;13.060;2022-11-25T08:32:36;14.70;93.20
3017;DHT22;1518;52.408;13.060;2022-11-25T08:35:24;14.70;93.20
3017;DHT22;1518;52.408;13.060;2022-11-25T08:38:13;14.70;93.00
3017;DHT22;1518;52.408;13.060;2022-11-25T08:41:02;14.70;92.80
3017;DHT22;1518;52.408;13.060;2022-11-25T08:43:51;14.70;92.60
3017;DHT22;1518;52.408;13.060;2022-11-25T08:46:39;14.60;92.60
3017;DHT22;1518;52.408;13.060;2022-11-25T08:49:27;14.70;92.50
3017;DHT22;1518;52.408;13.060;2022-11-25T08:52:20;14.60;92.50
3017;DHT22;1518;52.408;13.060;2022-11-25T08:55:10;14.70;92.60
3017;DHT22;1518;52.408;13.060;2022-11-25T08:57:58;14.60;92.50
3017;DHT22;1518;52.408;13.060;2022-11-25T09:00:46;14.60;92.50
3017;DHT22;1518;52.408;13.060;2022-11-25T09:03:36;14.60;92.50
3017;DHT22;1518;52.408;13.060;2022-11-25T09:06:26;14.60;92.50
3017;DHT22;1518;52.408;13.060;2022-11-25T09:09:14;14.50;92.50
3017;DHT22;1518;52.408;13.060;2022-11-25T09:12:04;14.60;92.60
3017;DHT22;1518;52.408;13.060;2022-11-25T09:14:52;15.60;93.10
3017;DHT22;1518;52.408;13.060;2022-11-25T09:17:40;14.40;92.60
3017;DHT22;1518;52.408;13.060;2022-11-25T09:20:29;14.40;92.70
3017;DHT22;1518;52.408;13.060;2022-11-25T09:23:18;14.40;92.70
3017;DHT22;1518;52.408;13.060;2022-11-25T09:26:07;14.40;92.80
3017;DHT22;1518;52.408;13.060;2022-11-25T09:29:02;14.40;92.90
3017;DHT22;1518;52.408;13.060;2022-11-25T09:31:50;14.30;93.20
3017;DHT22;1518;52.408;13.060;2022-11-25T09:34:40;14.30;93.50
3017;DHT22;1518;52.408;13.060;2022-11-25T09:37:28;14.00;93.30
3017;DHT22;1518;52.408;13.060;2022-11-25T09:40:19;14.30;93.70
3017;DHT22;1518;52.408;13.060;2022-11-25T09:43:17;14.30;93.60
3017;DHT22;1518;52.408;13.060;2022-11-25T09:46:37;14.30;93.70
3017;DHT22;1518;52.408;13.060;2022-11-25T09:49:44;14.30;93.60
3017;DHT22;1518;52.408;13.060;2022-11-25T09:52:39;14.40;93.40
3017;DHT22;1518;52.408;13.060;2022-11-25T09:55:34;14.40;93.20
3017;DHT22;1518;52.408;13.060;2022-11-25T09:58:29;14.40;93.10
3017;DHT22;1518;52.408;13.060;2022-11-25T10:01:21;14.40;93.20
3017;DHT22;1518;52.408;13.060;2022-11-25T10:04:16;14.40;93.10
3017;DHT22;1518;52.408;13.060;2022-11-25T10:07:12;14.50;93.00
3017;DHT22;1518;52.408;13.060;2022-11-25T10:10:05;14.50;93.00
3017;DHT22;1518;52.408;13.060;2022-11-25T10:12:55;14.50;92.90
3017;DHT22;1518;52.408;13.060;2022-11-25T10:15:47;14.50;92.90
3017;DHT22;1518;52.408;13.060;2022-11-25T10:18:39;14.50;92.90
3017;DHT22;1518;52.408;13.060;2022-11-25T10:21:30;14.50;92.90
3017;DHT22;1518;52.408;13.060;2022-11-25T10:24:18;14.50;92.90
3017;DHT22;1518;52.408;13.060;2022-11-25T10:27:16;14.50;92.70
3017;DHT22;1518;52.408;13.060;2022-11-25T10:30:14;14.50;93.00
3017;DHT22;1518;52.408;13.060;2022-11-25T10:33:10;14.50;93.10
3017;DHT22;1518;52.408;13.060;2022-11-25T10:36:02;14.40;93.10
3017;DHT22;1518;52.408;13.060;2022-11-25T10:38:58;14.50;93.40
3017;DHT22;1518;52.408;13.060;2022-11-25T10:41:51;14.40;93.50
3017;DHT22;1518;52.408;13.060;2022-11-25T10:44:40;14.40;93.70
3017;DHT22;1518;52.408;13.060;2022-11-25T10:47:34;14.40;93.90
3017;DHT22;1518;52.408;13.060;2022-11-25T10:50:28;14.50;93.90
3017;DHT22;1518;52.408;13.060;2022-11-25T10:53:22;14.50;94.00
3017;DHT22;1518;52.408;13.060;2022-11-25T10:56:17;14.50;94.00
3017;DHT22;1518;52.408;13.060;2022-11-25T10:59:12;14.60;94.00
3017;DHT22;1518;52.408;13.060;2022-11-25T11:02:16;15.30;94.30
3017;DHT22;1518;52.408;13.060;2022-11-25T11:05:18;14.60;94.30
3017;DHT22;1518;52.408;13.060;2022-11-25T11:08:16;14.60;93.90
3017;DHT22;1518;52.408;13.060;2022-11-25T11:11:13;14.70;93.90
3017;DHT22;1518;52.408;13.060;2022-11-25T11:14:16;14.70;93.50
3017;DHT22;1518;52.408;13.060;2022-11-25T11:20:28;14.70;93.40
3017;DHT22;1518;52.408;13.060;2022-11-25T11:23:17;14.70;93.40
3017;DHT22;1518;52.408;13.060;2022-11-25T11:26:06;14.70;93.30
3017;DHT22;1518;52.408;13.060;2022-11-25T11:29:01;14.80;93.30
3017;DHT22;1518;52.408;13.060;2022-11-25T11:31:57;14.80;93.20
3017;DHT22;1518;52.408;13.060;2022-11-25T11:34:54;14.80;93.50
3017;DHT22;1518;52.408;13.060;2022-11-25T11:37:45;14.80;93.20
3017;DHT22;1518;52.408;13.060;2022-11-25T11:40:37;14.70;93.10
3017;DHT22;1518;52.408;13.060;2022-11-25T11:43:50;14.70;93.10
3017;DHT22;1518;52.408;13.060;2022-11-25T11:46:54;14.70;93.20
3017;DHT22;1518;52.408;13.060;2022-11-25T11:49:56;14.70;93.20
3017;DHT22;1518;52.408;13.060;2022-11-25T11:52:55;14.70;93.20
3017;DHT22;1518;52.408;13.060;2022-11-25T11:55:55;14.60;93.30
3017;DHT22;1518;52.408;13.060;2022-11-25T11:59:32;14.60;93.40
3017;DHT22;1518;52.408;13.060;2022-11-25T12:02:35;14.60;93.60
3017;DHT22;1518;52.408;13.060;2022-11-25T12:05:28;14.60;93.90
3017;DHT22;1518;52.408;13.060;2022-11-25T12:08:24;14.60;94.00
3017;DHT22;1518;52.408;13.060;2022-11-25T12:11:19;14.60;94.00
3017;DHT22;1518;52.408;13.060;2022-11-25T12:14:11;14.10;93.80
3017;DHT22;1518;52.408;13.060;2022-11-25T12:17:06;14.70;94.00
3017;DHT22;1518;52.408;13.060;2022-11-25T12:20:02;14.70;94.00
3017;DHT22;1518;52.408;13.060;2022-11-25T12:22:58;14.80;94.00
3017;DHT22;1518;52.408;13.060;2022-11-25T12:25:50;14.90;94.10
3017;DHT22;1518;52.408;13.060;2022-11-25T12:28:44;14.80;94.10
3017;DHT22;1518;52.408;13.060;2022-11-25T12:31:37;14.80;94.10
3017;DHT22;1518;52.408;13.060;2022-11-25T12:34:32;14.90;94.10
3017;DHT22;1518;52.408;13.060;2022-11-25T12:37:31;14.90;93.90
3017;DHT22;1518;52.408;13.060;2022-11-25T12:40:25;14.90;93.60
3017;DHT22;1518;52.408;13.060;2022-11-25T12:43:24;14.90;93.50
3017;DHT22;1518;52.408;13.060;2022-11-25T12:46:21;15.00;93.50
3017;DHT22;1518;52.408;13.060;2022-11-25T12:49:16;15.00;93.40
3017;DHT22;1518;52.408;13.060;2022-11-25T12:52:16;15.00;93.40
3017;DHT22;1518;52.408;13.060;2022-11-25T12:55:12;15.00;93.40
3017;DHT22;1518;52.408;13.060;2022-11-25T13:01:40;15.00;93.40
3017;DHT22;1518;52.408;13.060;2022-11-25T13:05:01;15.00;93.40
3017;DHT22;1518;52.408;13.060;2022-11-25T13:08:20;14.90;93.30
3017;DHT22;1518;52.408;13.060;2022-11-25T13:11:33;14.90;93.40
3017;DHT22;1518;52.408;13.060;2022-11-25T13:14:38;14.90;93.40
3017;DHT22;1518;52.408;13.060;2022-11-25T13:17:39;14.80;93.30
3017;DHT22;1518;52.408;13.060;2022-11-25T13:20:33;14.80;93.40
3017;DHT22;1518;52.408;13.060;2022-11-25T13:23:38;14.80;93.60
3017;DHT22;1518;52.408;13.060;2022-11-25T13:26:49;14.80;93.70
3017;DHT22;1518;52.408;13.060;2022-11-25T13:29:58;14.80;94.00
3017;DHT22;1518;52.408;13.060;2022-11-25T13:32:47;14.80;94.30
3017;DHT22;1518;52.408;13.060;2022-11-25T13:35:46;14.80;94.10
3017;DHT22;1518;52.408;13.060;2022-11-25T13:38:57;14.80;94.40
3017;DHT22;1518;52.408;13.060;2022-11-25T13:41:59;14.90;94.40
3017;DHT22;1518;52.408;13.060;2022-11-25T13:44:50;14.90;94.40
3017;DHT22;1518;52.408;13.060;2022-11-25T13:47:40;15.00;94.50
3017;DHT22;1518;52.408;13.060;2022-11-25T13:50:32;15.00;94.50
3017;DHT22;1518;52.408;13.060;2022-11-25T13:53:40;15.00;94.20
3017;DHT22;1518;52.408;13.060;2022-11-25T13:56:32;15.10;94.40
3017;DHT22;1518;52.408;13.060;2022-11-25T13:59:35;15.10;94.30
3017;DHT22;1518;52.408;13.060;2022-11-25T14:02:35;15.10;94.20
3017;DHT22;1518;52.408;13.060;2022-11-25T14:05:57;15.20;94.10
3017;DHT22;1518;52.408;13.060;2022-11-25T14:08:54;15.20;94.00
3017;DHT22;1518;52.408;13.060;2022-11-25T14:11:55;15.20;93.90
3017;DHT22;1518;52.408;13.060;2022-11-25T14:15:11;15.20;93.90
3017;DHT22;1518;52.408;13.060;2022-11-25T14:18:26;15.10;93.80
3017;DHT22;1518;52.408;13.060;2022-11-25T14:21:49;15.20;93.90
3017;DHT22;1518;52.408;13.060;2022-11-25T14:24:42;15.10;93.80
3017;DHT22;1518;52.408;13.060;2022-11-25T14:27:34;15.10;93.80
3017;DHT22;1518;52.408;13.060;2022-11-25T14:30:24;15.10;93.80
3017;DHT22;1518;52.408;13.060;2022-11-25T14:33:14;15.10;93.80
3017;DHT22;1518;52.408;13.060;2022-11-25T14:36:08;15.00;93.70
3017;DHT22;1518;52.408;13.060;2022-11-25T14:39:00;15.00;93.70
3017;DHT22;1518;52.408;13.060;2022-11-25T14:41:56;15.00;93.70
3017;DHT22;1518;52.408;13.060;2022-11-25T14:44:47;15.00;93.70
3017;DHT22;1518;52.408;13.060;2022-11-25T14:47:37;14.90;93.60
3017;DHT22;1518;52.408;13.060;2022-11-25T14:50:25;14.90;93.60
3017;DHT22;1518;52.408;13.060;2022-11-25T14:53:21;14.90;93.60
3017;DHT22;1518;52.408;13.060;2022-11-25T14:56:10;14.90;93.70
3017;DHT22;1518;52.408;13.060;2022-11-25T14:59:00;14.90;93.70
3017;DHT22;1518;52.408;13.060;2022-11-25T15:01:52;14.90;93.80
3017;DHT22;1518;52.408;13.060;2022-11-25T15:04:43;14.90;94.00
3017;DHT22;1518;52.408;13.060;2022-11-25T15:07:31;14.80;94.10
3017;DHT22;1518;52.408;13.060;2022-11-25T15:10:33;14.80;94.30
3017;DHT22;1518;52.408;13.060;2022-11-25T15:13:27;14.80;94.50
3017;DHT22;1518;52.408;13.060;2022-11-25T15:16:18;14.80;94.60
3017;DHT22;1518;52.408;13.060;2022-11-25T15:19:16;14.80;95.10
3017;DHT22;1518;52.408;13.060;2022-11-25T15:22:10;14.80;94.80
3017;DHT22;1518;52.408;13.060;2022-11-25T15:25:13;14.80;94.80
3017;DHT22;1518;52.408;13.060;2022-11-25T15:28:01;14.80;94.70
3017;DHT22;1518;52.408;13.060;2022-11-25T15:30:57;14.80;94.50
3017;DHT22;1518;52.408;13.060;2022-11-25T15:33:46;14.80;94.40
3017;DHT22;1518;52.408;13.060;2022-11-25T15:36:40;14.80;94.40
3017;DHT22;1518;52.408;13.060;2022-11-25T15:39:29;14.90;94.30
3017;DHT22;1518;52.408;13.060;2022-11-25T15:42:19;14.80;94.20
3017;DHT22;1518;52.408;13.060;2022-11-25T15:45:18;14.90;94.30
3017;DHT22;1518;52.408;13.060;2022-11-25T15:48:14;14.90;94.30
3017;DHT22;1518;52.408;13.060;2022-11-25T15:51:05;14.90;94.10
3017;DHT22;1518;52.408;13.060;2022-11-25T15:54:00;14.80;93.90
3017;DHT22;1518;52.408;13.060;2022-11-25T15:56:53;14.90;94.00
3017;DHT22;1518;52.408;13.060;2022-11-25T15:59:47;14.80;93.80
3017;DHT22;1518;52.408;13.060;2022-11-25T16:02:38;14.90;93.90
3017;DHT22;1518;52.408;13.060;2022-11-25T16:05:36;14.90;93.90
3017;DHT22;1518;52.408;13.060;2022-11-25T16:08:34;14.90;93.70
3017;DHT22;1518;52.408;13.060;2022-11-25T16:11:23;14.90;93.90
3017;DHT22;1518;52.408;13.060;2022-11-25T16:14:23;14.80;93.80
3017;DHT22;1518;52.408;13.060;2022-11-25T16:17:13;14.80;93.90
3017;DHT22;1518;52.408;13.060;2022-11-25T16:20:01;14.80;93.90
3017;DHT22;1518;52.408;13.060;2022-11-25T16:22:49;14.80;94.20
3017;DHT22;1518;52.408;13.060;2022-11-25T16:25:39;14.80;94.30
3017;DHT22;1518;52.408;13.060;2022-11-25T16:28:27;14.70;94.50
3017;DHT22;1518;52.408;13.060;2022-11-25T16:31:16;14.70;94.70
3017;DHT22;1518;52.408;13.060;2022-11-25T16:34:11;14.70;94.70
3017;DHT22;1518;52.408;13.060;2022-11-25T16:37:00;14.70;94.60
3017;DHT22;1518;52.408;13.060;2022-11-25T16:39:48;14.80;94.70
3017;DHT22;1518;52.408;13.060;2022-11-25T16:42:37;14.80;94.60
3017;DHT22;1518;52.408;13.060;2022-11-25T16:45:26;14.80;94.60
3017;DHT22;1518;52.408;13.060;2022-11-25T16:48:16;14.80;94.60
3017;DHT22;1518;52.408;13.060;2022-11-25T16:51:07;14.80;94.50
3017;DHT22;1518;52.408;13.060;2022-11-25T16:53:55;14.80;94.50
3017;DHT22;1518;52.408;13.060;2022-11-25T16:56:45;14.80;94.50
3017;DHT22;1518;52.408;13.060;2022-11-25T16:59:37;14.80;94.40
3017;DHT22;1518;52.408;13.060;2022-11-25T17:02:26;14.80;94.40
3017;DHT22;1518;52.408;13.060;2022-11-25T17:05:16;14.80;94.30
3017;DHT22;1518;52.408;13.060;2022-11-25T17:08:05;14.80;94.30
3017;DHT22;1518;52.408;13.060;2022-11-25T17:10:56;14.80;94.20
3017;DHT22;1518;52.408;13.060;2022-11-25T17:13:47;14.80;94.20
3017;DHT22;1518;52.408;13.060;2022-11-25T17:16:39;14.80;94.10
3017;DHT22;1518;52.408;13.060;2022-11-25T17:19:28;14.80;94.10
3017;DHT22;1518;52.408;13.060;2022-11-25T17:22:18;14.80;94.10
3017;DHT22;1518;52.408;13.060;2022-11-25T17:25:09;14.80;94.10
3017;DHT22;1518;52.408;13.060;2022-11-25T17:27:59;14.80;94.10
3017;DHT22;1518;52.408;13.060;2022-11-25T17:30:47;14.80;94.10
3017;DHT22;1518;52.408;13.060;2022-11-25T17:33:37;14.80;94.10
3017;DHT22;1518;52.408;13.060;2022-11-25T17:36:28;14.80;94.10
3017;DHT22;1518;52.408;13.060;2022-11-25T17:39:16;14.80;94.20
3017;DHT22;1518;52.408;13.060;2022-11-25T17:42:04;14.80;94.50
3017;DHT22;1518;52.408;13.060;2022-11-25T17:44:52;14.80;94.90
3017;DHT22;1518;52.408;13.060;2022-11-25T17:47:41;14.80;95.00
3017;DHT22;1518;52.408;13.060;2022-11-25T17:50:30;14.90;95.00
3017;DHT22;1518;52.408;13.060;2022-11-25T17:53:18;14.90;95.00
3017;DHT22;1518;52.408;13.060;2022-11-25T17:56:16;14.90;94.90
3017;DHT22;1518;52.408;13.060;2022-11-25T17:59:10;15.00;94.90
3017;DHT22;1518;52.408;13.060;2022-11-25T18:01:59;15.00;94.90
3017;DHT22;1518;52.408;13.060;2022-11-25T18:04:47;15.00;94.90
3017;DHT22;1518;52.408;13.060;2022-11-25T18:07:37;15.10;94.80
3017;DHT22;1518;52.408;13.060;2022-11-25T18:10:26;15.10;94.80
3017;DHT22;1518;52.408;13.060;2022-11-25T18:13:14;15.10;94.80
3017;DHT22;1518;52.408;13.060;2022-11-25T18:16:04;15.20;94.80
3017;DHT22;1518;52.408;13.060;2022-11-25T18:18:52;15.20;94.70
3017;DHT22;1518;52.408;13.060;2022-11-25T18:21:41;15.20;94.60
3017;DHT22;1518;52.408;13.060;2022-11-25T18:24:30;15.20;94.40
3017;DHT22;1518;52.408;13.060;2022-11-25T18:27:21;15.20;94.30
3017;DHT22;1518;52.408;13.060;2022-11-25T18:30:15;15.20;94.30